sensor_id;sensor_type;location;lat;lon;timestamp;P1;durP1;ratioP1;P2;durP2;ratioP2
69188;SDS011;56302;52.322;5.926;2022-11-15T00:01:28;34.97;;;14.20;;
69188;SDS011;56302;52.322;5.926;2022-11-15T00:03:53;32.43;;;13.37;;
69188;SDS011;56302;52.322;5.926;2022-11-15T00:06:19;33.07;;;14.03;;
69188;SDS011;56302;52.322;5.926;2022-11-15T00:08:44;33.58;;;14.02;;
69188;SDS011;56302;52.322;5.926;2022-11-15T00:11:10;30.33;;;13.30;;
69188;SDS011;56302;52.322;5.926;2022-11-15T00:13:37;33.08;;;14.02;;
69188;SDS011;56302;52.322;5.926;2022-11-15T00:16:02;36.97;;;14.47;;
69188;SDS011;56302;52.322;5.926;2022-11-15T00:18:28;32.50;;;13.85;;
69188;SDS011;56302;52.322;5.926;2022-11-15T00:20:55;33.92;;;14.48;;
69188;SDS011;56302;52.322;5.926;2022-11-15T00:23:21;32.30;;;13.20;;
69188;SDS011;56302;52.322;5.926;2022-11-15T00:25:46;33.28;;;13.40;;
69188;SDS011;56302;52.322;5.926;2022-11-15T00:28:12;31.70;;;13.70;;
69188;SDS011;56302;52.322;5.926;2022-11-15T00:30:37;33.33;;;14.00;;
69188;SDS011;56302;52.322;5.926;2022-11-15T00:33:03;32.80;;;13.75;;
69188;SDS011;56302;52.322;5.926;2022-11-15T00:35:33;31.63;;;13.67;;
69188;SDS011;56302;52.322;5.926;2022-11-15T00:38:00;31.90;;;13.65;;
69188;SDS011;56302;52.322;5.926;2022-11-15T00:40:26;35.33;;;13.85;;
69188;SDS011;56302;52.322;5.926;2022-11-15T00:42:51;35.17;;;14.27;;
69188;SDS011;56302;52.322;5.926;2022-11-15T00:45:17;32.30;;;13.32;;
69188;SDS011;56302;52.322;5.926;2022-11-15T00:47:45;35.40;;;14.50;;
69188;SDS011;56302;52.322;5.926;2022-11-15T00:50:11;32.97;;;13.85;;
69188;SDS011;56302;52.322;5.926;2022-11-15T00:52:37;31.58;;;13.85;;
69188;SDS011;56302;52.322;5.926;2022-11-15T00:55:03;33.00;;;13.53;;
69188;SDS011;56302;52.322;5.926;2022-11-15T00:57:29;33.33;;;14.50;;
69188;SDS011;56302;52.322;5.926;2022-11-15T00:59:55;34.23;;;14.13;;
69188;SDS011;56302;52.322;5.926;2022-11-15T01:02:20;34.55;;;15.30;;
69188;SDS011;56302;52.322;5.926;2022-11-15T01:04:46;37.90;;;15.25;;
69188;SDS011;56302;52.322;5.926;2022-11-15T01:07:11;39.50;;;16.13;;
69188;SDS011;56302;52.322;5.926;2022-11-15T01:09:37;37.33;;;14.50;;
69188;SDS011;56302;52.322;5.926;2022-11-15T01:12:03;38.67;;;14.17;;
69188;SDS011;56302;52.322;5.926;2022-11-15T01:14:28;36.20;;;13.95;;
69188;SDS011;56302;52.322;5.926;2022-11-15T01:16:54;37.67;;;14.90;;
69188;SDS011;56302;52.322;5.926;2022-11-15T01:19:19;39.07;;;14.60;;
69188;SDS011;56302;52.322;5.926;2022-11-15T01:21:45;37.83;;;14.10;;
69188;SDS011;56302;52.322;5.926;2022-11-15T01:24:14;42.63;;;15.65;;
69188;SDS011;56302;52.322;5.926;2022-11-15T01:26:39;42.53;;;15.43;;
69188;SDS011;56302;52.322;5.926;2022-11-15T01:29:05;43.93;;;14.87;;
69188;SDS011;56302;52.322;5.926;2022-11-15T01:31:30;41.00;;;15.47;;
69188;SDS011;56302;52.322;5.926;2022-11-15T01:33:56;36.95;;;15.00;;
69188;SDS011;56302;52.322;5.926;2022-11-15T01:36:21;42.40;;;15.10;;
69188;SDS011;56302;52.322;5.926;2022-11-15T01:38:52;39.53;;;15.40;;
69188;SDS011;56302;52.322;5.926;2022-11-15T01:41:23;41.25;;;15.82;;
69188;SDS011;56302;52.322;5.926;2022-11-15T01:43:55;40.78;;;14.70;;
69188;SDS011;56302;52.322;5.926;2022-11-15T01:46:34;39.42;;;14.73;;
69188;SDS011;56302;52.322;5.926;2022-11-15T01:49:02;47.50;;;16.07;;
69188;SDS011;56302;52.322;5.926;2022-11-15T01:51:35;48.85;;;15.32;;
69188;SDS011;56302;52.322;5.926;2022-11-15T01:54:05;45.50;;;15.82;;
69188;SDS011;56302;52.322;5.926;2022-11-15T01:56:40;43.83;;;15.98;;
69188;SDS011;56302;52.322;5.926;2022-11-15T01:59:12;42.10;;;15.30;;
69188;SDS011;56302;52.322;5.926;2022-11-15T02:01:38;47.47;;;15.35;;
69188;SDS011;56302;52.322;5.926;2022-11-15T02:04:06;45.33;;;15.73;;
69188;SDS011;56302;52.322;5.926;2022-11-15T02:06:38;42.42;;;14.32;;
69188;SDS011;56302;52.322;5.926;2022-11-15T02:09:05;42.58;;;15.93;;
69188;SDS011;56302;52.322;5.926;2022-11-15T02:11:31;43.08;;;15.32;;
69188;SDS011;56302;52.322;5.926;2022-11-15T02:13:57;45.22;;;15.27;;
69188;SDS011;56302;52.322;5.926;2022-11-15T02:19:17;41.92;;;16.30;;
69188;SDS011;56302;52.322;5.926;2022-11-15T02:32:54;38.85;;;14.98;;
69188;SDS011;56302;52.322;5.926;2022-11-15T02:39:03;39.33;;;14.43;;
69188;SDS011;56302;52.322;5.926;2022-11-15T02:41:46;41.83;;;15.38;;
69188;SDS011;56302;52.322;5.926;2022-11-15T02:49:51;48.67;;;15.68;;
69188;SDS011;56302;52.322;5.926;2022-11-15T02:52:19;37.90;;;16.20;;
69188;SDS011;56302;52.322;5.926;2022-11-15T02:54:54;38.97;;;15.45;;
69188;SDS011;56302;52.322;5.926;2022-11-15T03:00:17;43.88;;;16.52;;
69188;SDS011;56302;52.322;5.926;2022-11-15T03:10:46;36.50;;;15.98;;
69188;SDS011;56302;52.322;5.926;2022-11-15T03:13:36;39.42;;;14.88;;
69188;SDS011;56302;52.322;5.926;2022-11-15T03:16:24;35.92;;;15.82;;
69188;SDS011;56302;52.322;5.926;2022-11-15T03:21:47;47.78;;;17.05;;
69188;SDS011;56302;52.322;5.926;2022-11-15T03:24:14;48.85;;;17.50;;
69188;SDS011;56302;52.322;5.926;2022-11-15T03:26:44;47.08;;;17.00;;
69188;SDS011;56302;52.322;5.926;2022-11-15T03:29:13;46.90;;;18.30;;
69188;SDS011;56302;52.322;5.926;2022-11-15T03:31:46;46.97;;;16.23;;
69188;SDS011;56302;52.322;5.926;2022-11-15T03:34:26;41.67;;;16.85;;
69188;SDS011;56302;52.322;5.926;2022-11-15T03:36:52;44.55;;;16.67;;
69188;SDS011;56302;52.322;5.926;2022-11-15T03:39:18;44.08;;;17.55;;
69188;SDS011;56302;52.322;5.926;2022-11-15T03:47:48;35.60;;;16.10;;
69188;SDS011;56302;52.322;5.926;2022-11-15T03:50:18;41.50;;;16.98;;
69188;SDS011;56302;52.322;5.926;2022-11-15T03:52:46;42.88;;;17.08;;
69188;SDS011;56302;52.322;5.926;2022-11-15T03:55:14;40.40;;;16.17;;
69188;SDS011;56302;52.322;5.926;2022-11-15T03:57:43;48.95;;;17.77;;
69188;SDS011;56302;52.322;5.926;2022-11-15T04:00:09;41.53;;;17.27;;
69188;SDS011;56302;52.322;5.926;2022-11-15T04:02:36;43.38;;;17.75;;
69188;SDS011;56302;52.322;5.926;2022-11-15T04:05:01;41.37;;;17.93;;
69188;SDS011;56302;52.322;5.926;2022-11-15T04:07:27;39.28;;;17.02;;
69188;SDS011;56302;52.322;5.926;2022-11-15T04:09:53;37.93;;;16.37;;
69188;SDS011;56302;52.322;5.926;2022-11-15T04:12:28;44.38;;;16.65;;
69188;SDS011;56302;52.322;5.926;2022-11-15T04:14:58;37.90;;;18.30;;
69188;SDS011;56302;52.322;5.926;2022-11-15T04:20:04;39.92;;;16.98;;
69188;SDS011;56302;52.322;5.926;2022-11-15T04:22:54;42.30;;;17.23;;
69188;SDS011;56302;52.322;5.926;2022-11-15T04:25:39;37.63;;;16.50;;
69188;SDS011;56302;52.322;5.926;2022-11-15T04:28:05;43.90;;;17.30;;
69188;SDS011;56302;52.322;5.926;2022-11-15T04:30:31;52.90;;;19.70;;
69188;SDS011;56302;52.322;5.926;2022-11-15T04:32:57;43.10;;;17.80;;
69188;SDS011;56302;52.322;5.926;2022-11-15T04:35:22;45.83;;;17.00;;
69188;SDS011;56302;52.322;5.926;2022-11-15T04:37:48;45.80;;;16.90;;
69188;SDS011;56302;52.322;5.926;2022-11-15T04:40:13;47.97;;;18.43;;
69188;SDS011;56302;52.322;5.926;2022-11-15T04:42:40;49.13;;;16.65;;
69188;SDS011;56302;52.322;5.926;2022-11-15T04:45:07;44.70;;;17.48;;
69188;SDS011;56302;52.322;5.926;2022-11-15T04:47:33;42.83;;;16.30;;
69188;SDS011;56302;52.322;5.926;2022-11-15T04:49:59;54.43;;;18.73;;
69188;SDS011;56302;52.322;5.926;2022-11-15T04:52:24;49.00;;;17.37;;
69188;SDS011;56302;52.322;5.926;2022-11-15T04:54:50;51.67;;;18.52;;
69188;SDS011;56302;52.322;5.926;2022-11-15T04:57:15;45.65;;;17.00;;
69188;SDS011;56302;52.322;5.926;2022-11-15T04:59:41;43.67;;;17.40;;
69188;SDS011;56302;52.322;5.926;2022-11-15T05:02:06;46.30;;;17.73;;
69188;SDS011;56302;52.322;5.926;2022-11-15T05:04:32;45.05;;;16.90;;
69188;SDS011;56302;52.322;5.926;2022-11-15T05:06:57;42.63;;;16.13;;
69188;SDS011;56302;52.322;5.926;2022-11-15T05:09:23;39.47;;;16.03;;
69188;SDS011;56302;52.322;5.926;2022-11-15T05:11:48;50.45;;;17.13;;
69188;SDS011;56302;52.322;5.926;2022-11-15T05:14:14;42.73;;;16.00;;
69188;SDS011;56302;52.322;5.926;2022-11-15T05:16:40;45.63;;;16.67;;
69188;SDS011;56302;52.322;5.926;2022-11-15T05:19:06;43.53;;;17.30;;
69188;SDS011;56302;52.322;5.926;2022-11-15T05:21:32;42.20;;;17.53;;
69188;SDS011;56302;52.322;5.926;2022-11-15T05:23:58;36.03;;;16.08;;
69188;SDS011;56302;52.322;5.926;2022-11-15T05:26:23;42.03;;;16.77;;
69188;SDS011;56302;52.322;5.926;2022-11-15T05:28:55;43.50;;;16.50;;
69188;SDS011;56302;52.322;5.926;2022-11-15T05:31:22;40.15;;;16.02;;
69188;SDS011;56302;52.322;5.926;2022-11-15T05:33:49;40.00;;;16.23;;
69188;SDS011;56302;52.322;5.926;2022-11-15T05:38:45;40.58;;;15.75;;
69188;SDS011;56302;52.322;5.926;2022-11-15T05:41:11;40.08;;;16.40;;
69188;SDS011;56302;52.322;5.926;2022-11-15T05:43:38;43.85;;;16.65;;
69188;SDS011;56302;52.322;5.926;2022-11-15T05:46:05;36.47;;;15.90;;
69188;SDS011;56302;52.322;5.926;2022-11-15T05:48:32;36.60;;;16.27;;
69188;SDS011;56302;52.322;5.926;2022-11-15T05:51:00;41.85;;;16.60;;
69188;SDS011;56302;52.322;5.926;2022-11-15T05:53:27;33.85;;;16.15;;
69188;SDS011;56302;52.322;5.926;2022-11-15T05:55:53;37.25;;;15.30;;
69188;SDS011;56302;52.322;5.926;2022-11-15T05:58:19;31.87;;;14.83;;
69188;SDS011;56302;52.322;5.926;2022-11-15T06:00:45;39.20;;;15.75;;
69188;SDS011;56302;52.322;5.926;2022-11-15T06:03:11;37.45;;;15.88;;
69188;SDS011;56302;52.322;5.926;2022-11-15T06:05:39;31.63;;;15.60;;
69188;SDS011;56302;52.322;5.926;2022-11-15T06:08:04;39.90;;;16.37;;
69188;SDS011;56302;52.322;5.926;2022-11-15T06:10:30;39.00;;;16.20;;
69188;SDS011;56302;52.322;5.926;2022-11-15T06:12:56;33.27;;;16.10;;
69188;SDS011;56302;52.322;5.926;2022-11-15T06:15:23;41.13;;;16.15;;
69188;SDS011;56302;52.322;5.926;2022-11-15T06:17:48;31.83;;;14.53;;
69188;SDS011;56302;52.322;5.926;2022-11-15T06:20:14;35.70;;;15.02;;
69188;SDS011;56302;52.322;5.926;2022-11-15T06:22:40;38.73;;;15.13;;
69188;SDS011;56302;52.322;5.926;2022-11-15T06:25:05;37.55;;;15.45;;
69188;SDS011;56302;52.322;5.926;2022-11-15T06:27:31;29.45;;;14.82;;
69188;SDS011;56302;52.322;5.926;2022-11-15T06:29:57;37.17;;;16.33;;
69188;SDS011;56302;52.322;5.926;2022-11-15T06:32:22;29.77;;;15.32;;
69188;SDS011;56302;52.322;5.926;2022-11-15T06:34:48;34.90;;;15.53;;
69188;SDS011;56302;52.322;5.926;2022-11-15T06:37:13;35.30;;;15.80;;
69188;SDS011;56302;52.322;5.926;2022-11-15T06:39:39;30.60;;;14.23;;
69188;SDS011;56302;52.322;5.926;2022-11-15T06:42:04;35.13;;;15.10;;
69188;SDS011;56302;52.322;5.926;2022-11-15T06:44:30;28.77;;;15.33;;
69188;SDS011;56302;52.322;5.926;2022-11-15T06:46:55;32.50;;;15.38;;
69188;SDS011;56302;52.322;5.926;2022-11-15T06:49:21;39.00;;;15.43;;
69188;SDS011;56302;52.322;5.926;2022-11-15T06:51:46;30.80;;;14.57;;
69188;SDS011;56302;52.322;5.926;2022-11-15T06:54:12;36.60;;;15.98;;
69188;SDS011;56302;52.322;5.926;2022-11-15T06:56:37;31.10;;;15.00;;
69188;SDS011;56302;52.322;5.926;2022-11-15T06:59:02;30.70;;;14.10;;
69188;SDS011;56302;52.322;5.926;2022-11-15T07:01:28;34.22;;;15.73;;
69188;SDS011;56302;52.322;5.926;2022-11-15T07:03:53;29.90;;;14.77;;
69188;SDS011;56302;52.322;5.926;2022-11-15T07:06:19;33.60;;;15.77;;
69188;SDS011;56302;52.322;5.926;2022-11-15T07:08:45;34.60;;;14.20;;
69188;SDS011;56302;52.322;5.926;2022-11-15T07:11:10;32.13;;;15.05;;
69188;SDS011;56302;52.322;5.926;2022-11-15T07:13:36;31.53;;;14.97;;
69188;SDS011;56302;52.322;5.926;2022-11-15T07:16:05;35.10;;;16.20;;
69188;SDS011;56302;52.322;5.926;2022-11-15T07:18:33;33.13;;;15.32;;
69188;SDS011;56302;52.322;5.926;2022-11-15T07:21:00;31.05;;;14.95;;
69188;SDS011;56302;52.322;5.926;2022-11-15T07:23:30;33.33;;;15.03;;
69188;SDS011;56302;52.322;5.926;2022-11-15T07:25:56;31.35;;;14.77;;
69188;SDS011;56302;52.322;5.926;2022-11-15T07:28:23;36.95;;;15.52;;
69188;SDS011;56302;52.322;5.926;2022-11-15T07:30:49;31.48;;;14.80;;
69188;SDS011;56302;52.322;5.926;2022-11-15T07:33:15;33.53;;;14.73;;
69188;SDS011;56302;52.322;5.926;2022-11-15T07:35:40;34.00;;;14.73;;
69188;SDS011;56302;52.322;5.926;2022-11-15T07:38:07;28.30;;;13.75;;
69188;SDS011;56302;52.322;5.926;2022-11-15T07:40:33;33.38;;;14.82;;
69188;SDS011;56302;52.322;5.926;2022-11-15T07:43:02;36.63;;;15.23;;
69188;SDS011;56302;52.322;5.926;2022-11-15T07:45:30;33.13;;;14.25;;
69188;SDS011;56302;52.322;5.926;2022-11-15T07:47:56;34.80;;;14.40;;
69188;SDS011;56302;52.322;5.926;2022-11-15T07:50:22;33.53;;;14.77;;
69188;SDS011;56302;52.322;5.926;2022-11-15T07:52:53;31.48;;;15.07;;
69188;SDS011;56302;52.322;5.926;2022-11-15T07:55:20;30.00;;;13.73;;
69188;SDS011;56302;52.322;5.926;2022-11-15T07:57:46;37.58;;;15.50;;
69188;SDS011;56302;52.322;5.926;2022-11-15T08:00:12;28.60;;;14.37;;
69188;SDS011;56302;52.322;5.926;2022-11-15T08:02:38;32.17;;;14.55;;
69188;SDS011;56302;52.322;5.926;2022-11-15T08:05:03;31.10;;;14.83;;
69188;SDS011;56302;52.322;5.926;2022-11-15T08:07:29;32.78;;;14.45;;
69188;SDS011;56302;52.322;5.926;2022-11-15T08:09:56;35.72;;;15.75;;
69188;SDS011;56302;52.322;5.926;2022-11-15T08:12:21;33.75;;;14.88;;
69188;SDS011;56302;52.322;5.926;2022-11-15T08:14:47;35.40;;;14.77;;
69188;SDS011;56302;52.322;5.926;2022-11-15T08:17:13;29.57;;;14.93;;
69188;SDS011;56302;52.322;5.926;2022-11-15T08:19:38;39.30;;;15.43;;
69188;SDS011;56302;52.322;5.926;2022-11-15T08:22:04;31.45;;;15.13;;
69188;SDS011;56302;52.322;5.926;2022-11-15T08:24:29;36.97;;;15.77;;
69188;SDS011;56302;52.322;5.926;2022-11-15T08:26:55;42.40;;;16.90;;
69188;SDS011;56302;52.322;5.926;2022-11-15T08:29:21;31.27;;;14.85;;
69188;SDS011;56302;52.322;5.926;2022-11-15T08:31:46;36.53;;;15.47;;
69188;SDS011;56302;52.322;5.926;2022-11-15T08:34:12;31.08;;;13.63;;
69188;SDS011;56302;52.322;5.926;2022-11-15T08:36:37;33.13;;;14.90;;
69188;SDS011;56302;52.322;5.926;2022-11-15T08:39:03;32.77;;;15.30;;
69188;SDS011;56302;52.322;5.926;2022-11-15T08:41:31;30.75;;;14.73;;
69188;SDS011;56302;52.322;5.926;2022-11-15T08:44:00;34.28;;;15.00;;
69188;SDS011;56302;52.322;5.926;2022-11-15T08:46:26;31.00;;;14.07;;
69188;SDS011;56302;52.322;5.926;2022-11-15T08:48:51;28.75;;;14.73;;
69188;SDS011;56302;52.322;5.926;2022-11-15T08:51:17;31.57;;;14.67;;
69188;SDS011;56302;52.322;5.926;2022-11-15T08:53:42;31.53;;;14.37;;
69188;SDS011;56302;52.322;5.926;2022-11-15T08:56:09;30.55;;;14.30;;
69188;SDS011;56302;52.322;5.926;2022-11-15T08:58:36;30.17;;;13.70;;
69188;SDS011;56302;52.322;5.926;2022-11-15T09:01:02;29.55;;;13.57;;
69188;SDS011;56302;52.322;5.926;2022-11-15T09:03:28;28.58;;;13.70;;
69188;SDS011;56302;52.322;5.926;2022-11-15T09:05:57;25.77;;;13.23;;
69188;SDS011;56302;52.322;5.926;2022-11-15T09:08:24;26.48;;;13.75;;
69188;SDS011;56302;52.322;5.926;2022-11-15T09:10:50;24.25;;;13.30;;
69188;SDS011;56302;52.322;5.926;2022-11-15T09:13:16;26.77;;;13.45;;
69188;SDS011;56302;52.322;5.926;2022-11-15T09:15:42;28.83;;;12.70;;
69188;SDS011;56302;52.322;5.926;2022-11-15T09:18:07;25.20;;;12.30;;
69188;SDS011;56302;52.322;5.926;2022-11-15T09:20:33;26.27;;;12.20;;
69188;SDS011;56302;52.322;5.926;2022-11-15T09:23:01;24.03;;;12.83;;
69188;SDS011;56302;52.322;5.926;2022-11-15T09:25:28;24.35;;;12.35;;
69188;SDS011;56302;52.322;5.926;2022-11-15T09:27:54;23.90;;;12.38;;
69188;SDS011;56302;52.322;5.926;2022-11-15T09:30:20;23.97;;;11.33;;
69188;SDS011;56302;52.322;5.926;2022-11-15T09:32:45;23.65;;;11.95;;
69188;SDS011;56302;52.322;5.926;2022-11-15T09:35:11;22.10;;;11.60;;
69188;SDS011;56302;52.322;5.926;2022-11-15T09:37:36;22.33;;;11.67;;
69188;SDS011;56302;52.322;5.926;2022-11-15T09:40:02;25.58;;;11.73;;
69188;SDS011;56302;52.322;5.926;2022-11-15T09:42:35;20.83;;;11.73;;
69188;SDS011;56302;52.322;5.926;2022-11-15T09:45:34;19.80;;;10.80;;
69188;SDS011;56302;52.322;5.926;2022-11-15T09:50:50;20.25;;;10.10;;
69188;SDS011;56302;52.322;5.926;2022-11-15T09:56:03;19.02;;;9.23;;
69188;SDS011;56302;52.322;5.926;2022-11-15T09:59:00;20.90;;;9.50;;
69188;SDS011;56302;52.322;5.926;2022-11-15T10:04:22;17.30;;;8.95;;
69188;SDS011;56302;52.322;5.926;2022-11-15T10:06:52;17.55;;;8.85;;
69188;SDS011;56302;52.322;5.926;2022-11-15T10:09:38;15.38;;;8.45;;
69188;SDS011;56302;52.322;5.926;2022-11-15T10:12:06;15.27;;;8.23;;
69188;SDS011;56302;52.322;5.926;2022-11-15T10:14:33;18.17;;;7.85;;
69188;SDS011;56302;52.322;5.926;2022-11-15T10:22:29;15.73;;;7.75;;
69188;SDS011;56302;52.322;5.926;2022-11-15T10:27:44;14.23;;;7.05;;
69188;SDS011;56302;52.322;5.926;2022-11-15T10:30:16;15.73;;;7.25;;
69188;SDS011;56302;52.322;5.926;2022-11-15T10:32:43;9.85;;;5.47;;
69188;SDS011;56302;52.322;5.926;2022-11-15T10:35:43;9.48;;;5.65;;
69188;SDS011;56302;52.322;5.926;2022-11-15T10:38:06;9.07;;;4.77;;
69188;SDS011;56302;52.322;5.926;2022-11-15T10:40:33;11.85;;;5.28;;
69188;SDS011;56302;52.322;5.926;2022-11-15T10:43:19;12.93;;;6.28;;
69188;SDS011;56302;52.322;5.926;2022-11-15T10:45:45;12.57;;;5.63;;
69188;SDS011;56302;52.322;5.926;2022-11-15T10:50:37;9.85;;;5.00;;
69188;SDS011;56302;52.322;5.926;2022-11-15T10:53:03;8.80;;;5.03;;
69188;SDS011;56302;52.322;5.926;2022-11-15T10:55:36;8.07;;;4.22;;
69188;SDS011;56302;52.322;5.926;2022-11-15T10:58:09;10.45;;;4.70;;
69188;SDS011;56302;52.322;5.926;2022-11-15T11:00:55;9.13;;;4.13;;
69188;SDS011;56302;52.322;5.926;2022-11-15T11:03:27;11.33;;;4.30;;
69188;SDS011;56302;52.322;5.926;2022-11-15T11:06:05;7.10;;;4.10;;
69188;SDS011;56302;52.322;5.926;2022-11-15T11:08:52;9.82;;;4.20;;
69188;SDS011;56302;52.322;5.926;2022-11-15T11:11:20;8.93;;;4.85;;
69188;SDS011;56302;52.322;5.926;2022-11-15T11:13:46;9.90;;;4.30;;
69188;SDS011;56302;52.322;5.926;2022-11-15T11:24:56;9.27;;;3.95;;
69188;SDS011;56302;52.322;5.926;2022-11-15T11:27:40;7.28;;;3.63;;
69188;SDS011;56302;52.322;5.926;2022-11-15T11:33:24;8.05;;;4.22;;
69188;SDS011;56302;52.322;5.926;2022-11-15T11:38:32;7.47;;;3.40;;
69188;SDS011;56302;52.322;5.926;2022-11-15T11:41:20;6.97;;;2.75;;
69188;SDS011;56302;52.322;5.926;2022-11-15T11:44:33;9.38;;;4.00;;
69188;SDS011;56302;52.322;5.926;2022-11-15T11:47:01;5.93;;;3.00;;
69188;SDS011;56302;52.322;5.926;2022-11-15T11:54:58;6.70;;;2.85;;
69188;SDS011;56302;52.322;5.926;2022-11-15T11:57:32;7.13;;;2.90;;
69188;SDS011;56302;52.322;5.926;2022-11-15T12:00:00;5.03;;;2.55;;
69188;SDS011;56302;52.322;5.926;2022-11-15T12:05:40;6.65;;;2.60;;
69188;SDS011;56302;52.322;5.926;2022-11-15T12:08:15;4.40;;;2.67;;
69188;SDS011;56302;52.322;5.926;2022-11-15T12:11:35;5.57;;;2.40;;
69188;SDS011;56302;52.322;5.926;2022-11-15T12:13:45;6.63;;;2.22;;
69188;SDS011;56302;52.322;5.926;2022-11-15T12:18:50;3.63;;;2.08;;
69188;SDS011;56302;52.322;5.926;2022-11-15T12:21:39;6.20;;;2.15;;
69188;SDS011;56302;52.322;5.926;2022-11-15T12:24:24;6.60;;;2.08;;
69188;SDS011;56302;52.322;5.926;2022-11-15T12:26:59;4.10;;;1.63;;
69188;SDS011;56302;52.322;5.926;2022-11-15T12:29:44;3.92;;;1.73;;
69188;SDS011;56302;52.322;5.926;2022-11-15T12:32:18;5.78;;;1.60;;
69188;SDS011;56302;52.322;5.926;2022-11-15T12:34:56;4.00;;;1.83;;
69188;SDS011;56302;52.322;5.926;2022-11-15T12:46:03;6.38;;;1.45;;
69188;SDS011;56302;52.322;5.926;2022-11-15T12:51:02;4.22;;;1.67;;
69188;SDS011;56302;52.322;5.926;2022-11-15T12:53:32;3.53;;;1.25;;
69188;SDS011;56302;52.322;5.926;2022-11-15T12:58:57;4.63;;;1.30;;
69188;SDS011;56302;52.322;5.926;2022-11-15T13:11:57;4.60;;;1.48;;
69188;SDS011;56302;52.322;5.926;2022-11-15T13:20:00;4.78;;;1.60;;
69188;SDS011;56302;52.322;5.926;2022-11-15T13:22:26;4.20;;;1.92;;
69188;SDS011;56302;52.322;5.926;2022-11-15T13:27:52;6.22;;;1.40;;
69188;SDS011;56302;52.322;5.926;2022-11-15T13:30:26;4.60;;;1.07;;
69188;SDS011;56302;52.322;5.926;2022-11-15T13:32:54;4.18;;;0.95;;
69188;SDS011;56302;52.322;5.926;2022-11-15T13:35:21;5.28;;;1.60;;
69188;SDS011;56302;52.322;5.926;2022-11-15T13:37:48;4.75;;;1.30;;
69188;SDS011;56302;52.322;5.926;2022-11-15T13:42:46;3.73;;;1.00;;
69188;SDS011;56302;52.322;5.926;2022-11-15T13:45:13;2.95;;;0.93;;
69188;SDS011;56302;52.322;5.926;2022-11-15T13:47:41;6.28;;;1.23;;
69188;SDS011;56302;52.322;5.926;2022-11-15T13:50:10;3.10;;;1.00;;
69188;SDS011;56302;52.322;5.926;2022-11-15T13:52:40;5.05;;;1.50;;
69188;SDS011;56302;52.322;5.926;2022-11-15T13:55:12;5.33;;;1.50;;
69188;SDS011;56302;52.322;5.926;2022-11-15T14:00:26;4.72;;;1.67;;
69188;SDS011;56302;52.322;5.926;2022-11-15T14:05:46;5.88;;;1.52;;
69188;SDS011;56302;52.322;5.926;2022-11-15T14:08:36;4.77;;;1.50;;
69188;SDS011;56302;52.322;5.926;2022-11-15T14:11:08;6.00;;;1.42;;
69188;SDS011;56302;52.322;5.926;2022-11-15T14:13:41;4.75;;;1.40;;
69188;SDS011;56302;52.322;5.926;2022-11-15T14:16:23;2.97;;;1.08;;
69188;SDS011;56302;52.322;5.926;2022-11-15T14:19:02;6.57;;;2.00;;
69188;SDS011;56302;52.322;5.926;2022-11-15T14:21:30;3.90;;;1.13;;
69188;SDS011;56302;52.322;5.926;2022-11-15T14:24:29;6.72;;;1.70;;
69188;SDS011;56302;52.322;5.926;2022-11-15T14:26:54;5.47;;;1.70;;
69188;SDS011;56302;52.322;5.926;2022-11-15T14:29:27;5.37;;;1.70;;
69188;SDS011;56302;52.322;5.926;2022-11-15T14:31:54;6.03;;;1.52;;
69188;SDS011;56302;52.322;5.926;2022-11-15T14:34:44;6.55;;;1.50;;
69188;SDS011;56302;52.322;5.926;2022-11-15T14:37:44;3.88;;;1.60;;
69188;SDS011;56302;52.322;5.926;2022-11-15T14:40:03;8.20;;;1.60;;
69188;SDS011;56302;52.322;5.926;2022-11-15T14:42:30;4.88;;;1.23;;
69188;SDS011;56302;52.322;5.926;2022-11-15T14:44:55;3.38;;;1.38;;
69188;SDS011;56302;52.322;5.926;2022-11-15T14:47:21;4.00;;;2.00;;
69188;SDS011;56302;52.322;5.926;2022-11-15T14:49:47;5.30;;;1.20;;
69188;SDS011;56302;52.322;5.926;2022-11-15T14:55:01;3.15;;;1.40;;
69188;SDS011;56302;52.322;5.926;2022-11-15T14:57:28;5.55;;;1.65;;
69188;SDS011;56302;52.322;5.926;2022-11-15T14:59:54;6.45;;;1.92;;
69188;SDS011;56302;52.322;5.926;2022-11-15T15:02:21;4.80;;;1.77;;
69188;SDS011;56302;52.322;5.926;2022-11-15T15:04:48;6.13;;;2.17;;
69188;SDS011;56302;52.322;5.926;2022-11-15T15:07:14;5.18;;;1.70;;
69188;SDS011;56302;52.322;5.926;2022-11-15T15:09:41;4.47;;;1.33;;
69188;SDS011;56302;52.322;5.926;2022-11-15T15:12:14;4.30;;;1.73;;
69188;SDS011;56302;52.322;5.926;2022-11-15T15:14:40;5.40;;;2.13;;
69188;SDS011;56302;52.322;5.926;2022-11-15T15:17:06;4.25;;;2.20;;
69188;SDS011;56302;52.322;5.926;2022-11-15T15:19:31;4.43;;;1.70;;
69188;SDS011;56302;52.322;5.926;2022-11-15T15:21:57;5.37;;;1.60;;
69188;SDS011;56302;52.322;5.926;2022-11-15T15:24:22;5.13;;;1.70;;
69188;SDS011;56302;52.322;5.926;2022-11-15T15:26:48;4.93;;;1.70;;
69188;SDS011;56302;52.322;5.926;2022-11-15T15:29:13;4.40;;;1.90;;
69188;SDS011;56302;52.322;5.926;2022-11-15T15:31:39;4.40;;;1.90;;
69188;SDS011;56302;52.322;5.926;2022-11-15T15:34:05;8.00;;;1.97;;
69188;SDS011;56302;52.322;5.926;2022-11-15T15:36:30;5.78;;;1.70;;
69188;SDS011;56302;52.322;5.926;2022-11-15T15:38:56;4.30;;;1.87;;
69188;SDS011;56302;52.322;5.926;2022-11-15T15:41:22;6.27;;;2.00;;
69188;SDS011;56302;52.322;5.926;2022-11-15T15:43:48;5.07;;;2.10;;
69188;SDS011;56302;52.322;5.926;2022-11-15T15:46:14;5.93;;;2.03;;
69188;SDS011;56302;52.322;5.926;2022-11-15T15:48:41;5.40;;;1.90;;
69188;SDS011;56302;52.322;5.926;2022-11-15T15:51:06;6.45;;;1.70;;
69188;SDS011;56302;52.322;5.926;2022-11-15T15:53:32;5.10;;;1.90;;
69188;SDS011;56302;52.322;5.926;2022-11-15T15:55:58;4.70;;;1.92;;
69188;SDS011;56302;52.322;5.926;2022-11-15T15:58:24;7.80;;;1.97;;
69188;SDS011;56302;52.322;5.926;2022-11-15T16:00:49;5.30;;;1.93;;
69188;SDS011;56302;52.322;5.926;2022-11-15T16:03:15;4.75;;;1.73;;
69188;SDS011;56302;52.322;5.926;2022-11-15T16:05:40;6.33;;;2.00;;
69188;SDS011;56302;52.322;5.926;2022-11-15T16:08:08;4.93;;;2.13;;
69188;SDS011;56302;52.322;5.926;2022-11-15T16:10:54;8.18;;;2.22;;
69188;SDS011;56302;52.322;5.926;2022-11-15T16:13:20;5.30;;;1.80;;
69188;SDS011;56302;52.322;5.926;2022-11-15T16:15:45;8.13;;;2.05;;
69188;SDS011;56302;52.322;5.926;2022-11-15T16:18:16;6.53;;;2.13;;
69188;SDS011;56302;52.322;5.926;2022-11-15T16:20:43;6.20;;;1.60;;
69188;SDS011;56302;52.322;5.926;2022-11-15T16:23:11;5.82;;;1.90;;
69188;SDS011;56302;52.322;5.926;2022-11-15T16:28:17;4.65;;;1.33;;
69188;SDS011;56302;52.322;5.926;2022-11-15T16:30:46;2.97;;;1.40;;
69188;SDS011;56302;52.322;5.926;2022-11-15T16:33:12;5.38;;;1.90;;
69188;SDS011;56302;52.322;5.926;2022-11-15T16:35:38;5.97;;;1.63;;
69188;SDS011;56302;52.322;5.926;2022-11-15T16:38:03;6.50;;;1.87;;
69188;SDS011;56302;52.322;5.926;2022-11-15T16:40:33;6.17;;;1.57;;
69188;SDS011;56302;52.322;5.926;2022-11-15T16:43:00;4.75;;;1.40;;
69188;SDS011;56302;52.322;5.926;2022-11-15T16:45:27;3.78;;;1.63;;
69188;SDS011;56302;52.322;5.926;2022-11-15T16:47:53;5.93;;;1.70;;
69188;SDS011;56302;52.322;5.926;2022-11-15T16:50:20;5.50;;;1.90;;
69188;SDS011;56302;52.322;5.926;2022-11-15T16:52:50;4.40;;;1.37;;
69188;SDS011;56302;52.322;5.926;2022-11-15T16:55:17;8.80;;;1.98;;
69188;SDS011;56302;52.322;5.926;2022-11-15T16:57:43;6.38;;;1.55;;
69188;SDS011;56302;52.322;5.926;2022-11-15T17:00:11;4.27;;;1.70;;